Time;durP1;ratioP1;P1;durP2;ratioP2;P2;SDS_P1;SDS_P2;PMS_P1;PMS_P2;Temp;Humidity;BMP_temperature;BMP_pressure;BME280_temperature;BME280_humidity;BME280_pressure;Samples;Min_cycle;Max_cycle;Signal;HPM_P1;HPM_P2
2023/01/03 00:01:52;;;;;;;;;;;4.60;99.90;;;;;;5038959;28;19960;-71
2023/01/03 00:04:17;;;;;;;;;;;4.60;99.90;;;;;;5042738;28;19928;-66
2023/01/03 00:06:47;;;;;;;;;;;4.60;99.90;;;;;;5083988;28;19931;-67
2023/01/03 00:09:15;;;;;;;;;;;4.60;99.90;;;;;;5041398;28;19924;-66
2023/01/03 00:14:27;;;;;;;;;;;4.50;99.90;;;;;;5039827;28;19925;-66
2023/01/03 00:16:54;;;;;;;;;;;4.50;99.90;;;;;;5038615;28;19975;-69
2023/01/03 00:19:20;;;;;;;;;;;4.50;99.90;;;;;;5038064;28;19932;-66
2023/01/03 00:21:46;;;;;;;;;;;4.50;99.90;;;;;;5048467;28;19943;-66
2023/01/03 00:24:11;;;;;;;;;;;4.50;99.90;;;;;;5042081;28;20294;-67
2023/01/03 00:26:37;;;;;;;;;;;4.50;99.90;;;;;;5039883;28;19932;-66
2023/01/03 00:29:03;;;;;;;;;;;4.60;99.90;;;;;;5044091;28;19932;-67
2023/01/03 00:31:29;;;;;;;;;;;4.50;99.90;;;;;;5040451;28;20352;-66
2023/01/03 00:33:54;;;;;;;;;;;4.70;99.90;;;;;;5046906;28;19921;-67
2023/01/03 00:36:20;;;;;;;;;;;4.60;99.90;;;;;;5037809;28;20389;-66
2023/01/03 00:38:45;;;;;;;;;;;4.60;99.90;;;;;;5039917;28;19921;-66
2023/01/03 00:41:12;;;;;;;;;;;4.60;99.90;;;;;;5040600;28;19929;-66
2023/01/03 00:43:38;;;;;;;;;;;4.70;99.90;;;;;;5042534;28;20285;-68
2023/01/03 00:46:04;;;;;;;;;;;4.70;99.90;;;;;;5035170;28;19928;-66
2023/01/03 00:48:30;;;;;;;;;;;4.70;99.90;;;;;;5044125;28;20352;-66
2023/01/03 00:50:56;;;;;;;;;;;4.70;99.90;;;;;;5068991;28;20059;-66
2023/01/03 00:53:22;;;;;;;;;;;4.70;99.90;;;;;;5050171;28;20249;-67
2023/01/03 00:55:48;;;;;;;;;;;4.70;99.90;;;;;;5050028;28;19921;-66
2023/01/03 00:58:14;;;;;;;;;;;4.70;99.90;;;;;;5049313;28;19931;-67
2023/01/03 01:00:39;;;;;;;;;;;4.70;99.90;;;;;;5049523;28;19925;-67
2023/01/03 01:03:05;;;;;;;;;;;4.80;99.90;;;;;;5051998;28;19928;-67
2023/01/03 01:05:30;;;;;;;;;;;4.80;99.90;;;;;;5061086;28;19924;-68
2023/01/03 01:07:56;;;;;;;;;;;4.80;99.90;;;;;;5050672;28;20410;-67
2023/01/03 01:10:22;;;;;;;;;;;4.80;99.90;;;;;;5050354;28;19921;-66
2023/01/03 01:12:48;;;;;;;;;;;4.80;99.90;;;;;;5050979;28;19971;-66
2023/01/03 01:15:14;;;;;;;;;;;4.80;99.90;;;;;;5050730;28;19960;-67
2023/01/03 01:17:39;;;;;;;;;;;4.90;99.90;;;;;;5051032;28;19940;-66
2023/01/03 01:20:05;;;;;;;;;;;4.90;99.90;;;;;;5050269;28;19931;-66
2023/01/03 01:22:32;;;;;;;;;;;4.90;99.90;;;;;;5050523;28;19924;-66
2023/01/03 01:24:57;;;;;;;;;;;4.90;99.90;;;;;;5049632;28;19967;-66
2023/01/03 01:27:26;;;;;;;;;;;5.00;99.90;;;;;;5050128;28;19929;-67
2023/01/03 01:29:51;;;;;;;;;;;5.00;99.90;;;;;;5050803;28;19951;-66
2023/01/03 01:32:17;;;;;;;;;;;5.00;99.90;;;;;;5049493;28;19935;-67
2023/01/03 01:34:42;;;;;;;;;;;5.00;99.90;;;;;;5050807;28;19957;-65
2023/01/03 01:37:08;;;;;;;;;;;5.00;99.90;;;;;;5051997;28;20344;-66
2023/01/03 01:39:34;;;;;;;;;;;5.00;99.90;;;;;;5054048;28;20015;-66
2023/01/03 01:44:57;;;;;;;;;;;5.00;99.90;;;;;;5053915;28;19921;-65
2023/01/03 01:47:35;;;;;;;;;;;5.00;99.90;;;;;;5054353;28;19931;-66
2023/01/03 01:50:01;;;;;;;;;;;5.00;99.90;;;;;;5041284;28;19921;-65
2023/01/03 01:52:27;;;;;;;;;;;5.10;99.90;;;;;;5053696;28;20170;-65
2023/01/03 01:54:54;;;;;;;;;;;5.00;99.90;;;;;;5054182;28;19921;-65
2023/01/03 01:57:21;;;;;;;;;;;5.00;99.90;;;;;;5054153;28;20288;-66
2023/01/03 01:59:47;;;;;;;;;;;5.00;99.90;;;;;;5050065;28;19975;-65
2023/01/03 02:02:15;;;;;;;;;;;5.00;99.90;;;;;;5053585;28;19968;-66
2023/01/03 02:04:41;;;;;;;;;;;5.00;99.90;;;;;;5054066;28;19974;-65
2023/01/03 02:07:07;;;;;;;;;;;5.00;99.90;;;;;;5053021;28;20316;-65
2023/01/03 02:09:34;;;;;;;;;;;5.00;99.90;;;;;;5065788;28;20356;-66
2023/01/03 02:15:11;;;;;;;;;;;5.00;99.90;;;;;;5053648;28;20408;-66
2023/01/03 02:17:45;;;;;;;;;;;5.00;99.90;;;;;;5053865;28;19935;-66
2023/01/03 02:20:23;;;;;;;;;;;5.00;99.90;;;;;;5054058;28;20280;-70
2023/01/03 02:23:00;;;;;;;;;;;5.00;99.90;;;;;;5052210;28;19963;-66
2023/01/03 02:25:32;;;;;;;;;;;5.00;99.90;;;;;;5052968;28;19931;-66
2023/01/03 02:28:14;;;;;;;;;;;5.00;99.90;;;;;;5053652;28;20029;-66
2023/01/03 02:31:03;;;;;;;;;;;5.00;99.90;;;;;;5051702;28;19924;-66
2023/01/03 02:33:36;;;;;;;;;;;5.00;99.90;;;;;;5022950;28;20070;-66
2023/01/03 02:36:09;;;;;;;;;;;5.00;99.90;;;;;;5053337;28;19921;-66
2023/01/03 02:38:47;;;;;;;;;;;5.00;99.90;;;;;;5065249;28;19920;-66
2023/01/03 02:41:13;;;;;;;;;;;5.00;99.90;;;;;;5052308;28;19921;-67
2023/01/03 02:43:52;;;;;;;;;;;4.90;99.90;;;;;;5052628;28;19920;-67
2023/01/03 02:46:27;;;;;;;;;;;4.90;99.90;;;;;;5085162;28;19931;-66
2023/01/03 02:48:56;;;;;;;;;;;4.90;99.90;;;;;;5053620;28;19925;-66
2023/01/03 02:51:29;;;;;;;;;;;4.80;99.90;;;;;;5051545;28;20042;-66
2023/01/03 02:53:56;;;;;;;;;;;4.80;99.90;;;;;;5051305;28;20282;-66
2023/01/03 02:56:26;;;;;;;;;;;4.80;99.90;;;;;;5052370;28;19925;-66
2023/01/03 02:58:55;;;;;;;;;;;4.70;99.90;;;;;;5060214;28;19921;-66
2023/01/03 03:01:20;;;;;;;;;;;4.60;99.90;;;;;;5057309;28;19920;-66
2023/01/03 03:03:46;;;;;;;;;;;4.60;99.90;;;;;;5052090;28;19921;-66
2023/01/03 03:06:15;;;;;;;;;;;4.50;99.90;;;;;;5051465;28;19924;-66
2023/01/03 03:08:42;;;;;;;;;;;5.00;99.90;;;;;;5055746;28;20036;-66
2023/01/03 03:13:54;;;;;;;;;;;4.40;99.90;;;;;;5052287;28;20326;-67
2023/01/03 03:24:48;;;;;;;;;;;4.30;99.90;;;;;;5053822;28;19920;-66
2023/01/03 03:24:49;;;;;;;;;;;;;;;;;;5083034;28;19999;-67
2023/01/03 03:30:00;;;;;;;;;;;4.20;99.90;;;;;;5058086;28;19931;-66
2023/01/03 03:32:27;;;;;;;;;;;4.10;99.90;;;;;;5060505;28;19925;-66
2023/01/03 03:34:54;;;;;;;;;;;4.00;99.90;;;;;;5051796;28;19928;-66
2023/01/03 03:37:21;;;;;;;;;;;4.00;99.90;;;;;;5052620;28;19921;-66
2023/01/03 03:45:34;;;;;;;;;;;3.90;99.90;;;;;;5051377;28;19935;-67
2023/01/03 03:48:04;;;;;;;;;;;3.80;99.90;;;;;;5052346;28;19921;-67
2023/01/03 03:50:38;;;;;;;;;;;3.80;99.90;;;;;;5053848;28;19924;-66
2023/01/03 03:53:05;;;;;;;;;;;3.80;99.90;;;;;;5058800;28;19924;-66
2023/01/03 03:55:34;;;;;;;;;;;3.80;99.90;;;;;;5080238;28;19971;-67
2023/01/03 03:58:08;;;;;;;;;;;3.70;99.90;;;;;;5052060;28;19920;-66
2023/01/03 04:00:37;;;;;;;;;;;3.70;99.90;;;;;;5050778;28;20397;-66
2023/01/03 04:03:03;;;;;;;;;;;3.70;99.90;;;;;;5051849;28;19920;-66
2023/01/03 04:05:32;;;;;;;;;;;3.60;99.90;;;;;;5050608;28;19978;-67
2023/01/03 04:07:57;;;;;;;;;;;3.70;99.90;;;;;;5051858;28;20263;-68
2023/01/03 04:10:23;;;;;;;;;;;3.60;99.90;;;;;;5050752;28;19969;-66
2023/01/03 04:12:49;;;;;;;;;;;3.60;99.90;;;;;;5052300;28;19925;-66
2023/01/03 04:15:14;;;;;;;;;;;3.60;99.90;;;;;;5051606;28;20377;-66
2023/01/03 04:17:40;;;;;;;;;;;3.50;99.90;;;;;;5048431;28;19924;-67
2023/01/03 04:20:06;;;;;;;;;;;3.50;99.90;;;;;;5051645;28;19921;-66
2023/01/03 04:22:31;;;;;;;;;;;3.50;99.90;;;;;;5054564;28;19921;-67
2023/01/03 04:24:57;;;;;;;;;;;3.50;99.90;;;;;;5051696;28;20298;-67
2023/01/03 04:27:22;;;;;;;;;;;3.40;99.90;;;;;;5050762;28;20007;-66
2023/01/03 04:29:48;;;;;;;;;;;3.50;99.90;;;;;;5050528;28;19920;-67
2023/01/03 04:32:14;;;;;;;;;;;3.50;99.90;;;;;;5051463;28;19924;-66
2023/01/03 04:34:39;;;;;;;;;;;3.40;99.90;;;;;;5052405;28;19960;-66
2023/01/03 04:37:05;;;;;;;;;;;3.40;99.90;;;;;;5050684;28;19921;-66
2023/01/03 04:39:30;;;;;;;;;;;3.50;99.90;;;;;;5079101;28;19929;-71
2023/01/03 04:41:56;;;;;;;;;;;;;;;;;;5051414;28;20415;-67
2023/01/03 04:44:22;;;;;;;;;;;3.50;99.90;;;;;;5083668;28;19936;-67
2023/01/03 04:46:47;;;;;;;;;;;3.70;99.90;;;;;;5049732;28;19947;-66
2023/01/03 04:49:13;;;;;;;;;;;3.50;99.90;;;;;;5050792;28;20279;-65
2023/01/03 04:51:39;;;;;;;;;;;3.60;99.90;;;;;;5048792;28;20067;-65
2023/01/03 04:54:05;;;;;;;;;;;3.50;99.90;;;;;;5051198;28;20294;-66
2023/01/03 04:56:32;;;;;;;;;;;3.50;99.90;;;;;;5049653;28;19935;-66
2023/01/03 04:58:58;;;;;;;;;;;3.50;99.90;;;;;;5054777;28;20041;-65
2023/01/03 05:01:23;;;;;;;;;;;3.60;99.90;;;;;;5045415;28;19921;-65
2023/01/03 05:03:49;;;;;;;;;;;3.60;99.90;;;;;;5082888;28;19921;-66
2023/01/03 05:06:15;;;;;;;;;;;3.60;99.90;;;;;;5051077;28;19924;-66
2023/01/03 05:08:43;;;;;;;;;;;3.60;99.90;;;;;;5045413;28;20386;-66
2023/01/03 05:11:08;;;;;;;;;;;3.60;99.90;;;;;;5049181;28;19931;-66
2023/01/03 05:13:34;;;;;;;;;;;3.70;99.90;;;;;;5044573;28;19925;-70
2023/01/03 05:16:07;;;;;;;;;;;3.70;99.90;;;;;;5048943;28;19975;-66
2023/01/03 05:18:33;;;;;;;;;;;3.70;99.90;;;;;;5050847;28;19929;-67
2023/01/03 05:26:44;;;;;;;;;;;3.70;99.90;;;;;;5050134;28;19965;-65
2023/01/03 05:29:10;;;;;;;;;;;3.80;99.90;;;;;;5046229;28;20286;-66
2023/01/03 05:31:36;;;;;;;;;;;3.70;99.90;;;;;;5052168;28;19925;-67
2023/01/03 05:34:01;;;;;;;;;;;3.80;99.90;;;;;;5052651;28;20301;-66
2023/01/03 05:36:27;;;;;;;;;;;3.70;99.90;;;;;;5043884;28;19921;-66
2023/01/03 05:38:52;;;;;;;;;;;3.80;99.90;;;;;;5045950;28;19979;-67
2023/01/03 05:41:58;;;;;;;;;;;3.80;99.90;;;;;;5048493;28;20358;-66
2023/01/03 05:44:04;;;;;;;;;;;3.80;99.90;;;;;;5047692;28;20039;-66
2023/01/03 05:46:30;;;;;;;;;;;3.80;99.90;;;;;;5043922;28;19975;-66
2023/01/03 05:48:56;;;;;;;;;;;3.80;99.90;;;;;;5044791;28;19922;-66
2023/01/03 05:51:22;;;;;;;;;;;3.80;99.90;;;;;;5051857;28;20038;-67
2023/01/03 05:53:47;;;;;;;;;;;3.90;99.90;;;;;;5044492;28;19978;-67
2023/01/03 05:56:13;;;;;;;;;;;3.80;99.90;;;;;;5042860;28;19921;-67
2023/01/03 05:58:41;;;;;;;;;;;3.90;99.90;;;;;;5081805;28;19928;-67
2023/01/03 06:01:07;;;;;;;;;;;3.90;99.90;;;;;;5055946;28;19924;-67
2023/01/03 06:03:32;;;;;;;;;;;3.90;99.90;;;;;;5050007;28;19925;-67
2023/01/03 06:06:01;;;;;;;;;;;3.90;99.90;;;;;;5052811;28;19970;-66
2023/01/03 06:08:26;;;;;;;;;;;3.90;99.90;;;;;;5054240;28;19935;-67
2023/01/03 06:10:52;;;;;;;;;;;3.90;99.90;;;;;;5066152;28;20300;-65
2023/01/03 06:13:17;;;;;;;;;;;4.20;99.90;;;;;;5053773;28;20289;-65
2023/01/03 06:17:53;;;;;;;;;;;3.90;99.90;;;;;;5053709;28;19973;-69
2023/01/03 06:18:28;;;;;;;;;;;3.90;99.90;;;;;;5053851;28;19929;-65
2023/01/03 06:20:54;;;;;;;;;;;;;;;;;;5062315;28;19974;-66
2023/01/03 06:23:20;;;;;;;;;;;3.90;99.90;;;;;;5053133;28;19920;-66
2023/01/03 06:25:45;;;;;;;;;;;3.90;99.90;;;;;;5053613;28;19920;-70
2023/01/03 06:28:11;;;;;;;;;;;;;;;;;;5052685;28;20393;-66
2023/01/03 06:30:37;;;;;;;;;;;3.90;99.90;;;;;;5048992;28;19924;-66
2023/01/03 06:33:03;;;;;;;;;;;3.90;99.90;;;;;;5051107;28;20000;-66
2023/01/03 06:35:28;;;;;;;;;;;3.90;99.90;;;;;;5044440;28;19928;-67
2023/01/03 06:37:54;;;;;;;;;;;3.80;99.90;;;;;;5046440;28;19928;-67
2023/01/03 06:40:19;;;;;;;;;;;3.80;99.90;;;;;;5051536;28;20003;-66
2023/01/03 06:42:45;;;;;;;;;;;3.80;99.90;;;;;;5063462;28;19921;-66
2023/01/03 06:53:34;;;;;;;;;;;3.70;99.90;;;;;;5049056;28;20310;-66
2023/01/03 06:55:59;;;;;;;;;;;3.70;99.90;;;;;;5050610;28;20255;-67
2023/01/03 06:58:25;;;;;;;;;;;3.70;99.90;;;;;;5040726;28;19927;-67
2023/01/03 07:00:51;;;;;;;;;;;3.70;99.90;;;;;;5040164;28;19921;-66
2023/01/03 07:03:16;;;;;;;;;;;3.60;99.90;;;;;;5047629;28;20039;-67
2023/01/03 07:05:42;;;;;;;;;;;3.60;99.90;;;;;;5052610;28;20339;-66
2023/01/03 07:08:08;;;;;;;;;;;3.50;99.90;;;;;;5055271;28;19947;-66
2023/01/03 07:10:33;;;;;;;;;;;3.50;99.90;;;;;;5051276;28;20003;-67
2023/01/03 07:15:44;;;;;;;;;;;3.50;99.90;;;;;;5051847;28;19991;-66
2023/01/03 07:18:10;;;;;;;;;;;3.40;99.90;;;;;;5052142;28;20019;-66
2023/01/03 07:20:39;;;;;;;;;;;3.40;99.90;;;;;;5062111;28;20007;-67
2023/01/03 07:23:04;;;;;;;;;;;3.40;99.90;;;;;;5050849;28;20282;-66
2023/01/03 07:25:30;;;;;;;;;;;3.40;99.90;;;;;;5051965;28;19928;-67
2023/01/03 07:27:56;;;;;;;;;;;3.30;99.90;;;;;;5050737;28;19925;-70
2023/01/03 07:30:21;;;;;;;;;;;3.30;99.90;;;;;;5052260;28;20275;-67
2023/01/03 07:32:47;;;;;;;;;;;3.30;99.90;;;;;;5051843;28;19984;-67
2023/01/03 07:35:12;;;;;;;;;;;3.30;99.90;;;;;;5051470;28;19969;-67
2023/01/03 07:37:38;;;;;;;;;;;3.30;99.90;;;;;;5051641;28;19920;-66
2023/01/03 07:40:04;;;;;;;;;;;3.30;99.90;;;;;;5050735;28;19921;-65
2023/01/03 07:45:13;;;;;;;;;;;2.80;99.90;;;;;;5045654;28;19931;-66
2023/01/03 07:47:43;;;;;;;;;;;3.20;99.90;;;;;;5050040;28;20333;-67
2023/01/03 07:50:08;;;;;;;;;;;3.20;99.90;;;;;;5050023;28;19921;-66
2023/01/03 07:52:34;;;;;;;;;;;3.20;99.90;;;;;;5042428;28;19925;-67
2023/01/03 07:54:59;;;;;;;;;;;3.20;99.90;;;;;;5053121;28;20401;-69
2023/01/03 07:57:25;;;;;;;;;;;3.20;99.90;;;;;;5047190;28;19946;-67
2023/01/03 07:59:51;;;;;;;;;;;3.20;99.90;;;;;;5043510;28;19951;-66
2023/01/03 08:02:19;;;;;;;;;;;3.20;99.90;;;;;;5044635;28;19925;-68
2023/01/03 08:04:44;;;;;;;;;;;3.20;99.90;;;;;;5084182;28;19921;-68
2023/01/03 08:07:10;;;;;;;;;;;3.20;99.90;;;;;;5050878;28;19920;-68
2023/01/03 08:15:04;;;;;;;;;;;3.30;99.90;;;;;;5078605;28;19929;-66
2023/01/03 08:17:29;;;;;;;;;;;3.20;99.90;;;;;;5051601;28;19920;-66
2023/01/03 08:19:55;;;;;;;;;;;3.20;99.90;;;;;;5051592;28;19927;-66
2023/01/03 08:22:20;;;;;;;;;;;3.20;99.90;;;;;;5050807;28;19925;-68
2023/01/03 08:24:46;;;;;;;;;;;3.20;99.90;;;;;;5050288;28;19929;-67
2023/01/03 08:27:12;;;;;;;;;;;3.30;99.90;;;;;;5037777;28;20306;-66
2023/01/03 08:29:37;;;;;;;;;;;3.30;99.90;;;;;;5043655;28;19944;-66
2023/01/03 08:32:03;;;;;;;;;;;3.30;99.90;;;;;;5042024;28;19920;-67
2023/01/03 08:34:30;;;;;;;;;;;3.30;99.90;;;;;;5044360;28;20482;-66
2023/01/03 08:36:59;;;;;;;;;;;3.30;99.90;;;;;;5043828;28;20298;-66
2023/01/03 08:39:27;;;;;;;;;;;3.30;99.90;;;;;;5046723;28;19920;-66
2023/01/03 08:41:55;;;;;;;;;;;3.50;99.90;;;;;;5049307;28;19930;-65
2023/01/03 08:44:20;;;;;;;;;;;3.40;99.90;;;;;;5051345;28;20200;-66
2023/01/03 08:46:48;;;;;;;;;;;3.30;99.90;;;;;;5059289;28;19940;-66
2023/01/03 08:49:14;;;;;;;;;;;3.40;99.90;;;;;;5043157;28;20276;-68
2023/01/03 08:51:39;;;;;;;;;;;3.40;99.90;;;;;;5037119;28;19927;-65
2023/01/03 08:54:05;;;;;;;;;;;3.40;99.90;;;;;;5049802;28;20329;-66
2023/01/03 08:56:31;;;;;;;;;;;3.40;99.90;;;;;;5050229;28;20436;-64
2023/01/03 08:58:56;;;;;;;;;;;3.40;99.90;;;;;;5047671;28;19979;-64
2023/01/03 09:01:23;;;;;;;;;;;3.80;99.90;;;;;;5046550;28;19986;-65
2023/01/03 09:03:48;;;;;;;;;;;3.50;99.90;;;;;;5051411;28;19998;-66
2023/01/03 09:06:14;;;;;;;;;;;3.50;99.90;;;;;;5042848;28;20373;-66
2023/01/03 09:08:40;;;;;;;;;;;3.50;99.90;;;;;;5040717;28;19921;-67
2023/01/03 09:11:06;;;;;;;;;;;3.50;99.90;;;;;;5036865;28;20415;-67
2023/01/03 09:13:32;;;;;;;;;;;3.50;99.90;;;;;;5039559;28;20004;-66
2023/01/03 09:16:01;;;;;;;;;;;3.60;99.90;;;;;;5055588;28;19996;-66
2023/01/03 09:18:26;;;;;;;;;;;3.60;99.90;;;;;;5035935;28;19925;-68
2023/01/03 09:20:52;;;;;;;;;;;3.70;99.90;;;;;;5038130;28;19936;-67
2023/01/03 09:23:18;;;;;;;;;;;3.60;99.90;;;;;;5036116;28;19933;-66
2023/01/03 09:25:45;;;;;;;;;;;3.60;99.90;;;;;;5054822;28;20007;-66
2023/01/03 09:28:11;;;;;;;;;;;3.60;99.90;;;;;;5046091;28;19924;-66
2023/01/03 09:30:36;;;;;;;;;;;3.70;99.90;;;;;;5049178;28;19928;-66
2023/01/03 09:33:03;;;;;;;;;;;3.70;99.90;;;;;;5046182;28;20087;-66
2023/01/03 09:35:29;;;;;;;;;;;3.70;99.90;;;;;;5054261;28;20378;-67
2023/01/03 09:37:55;;;;;;;;;;;3.70;99.90;;;;;;5034541;28;19925;-67
2023/01/03 09:40:20;;;;;;;;;;;3.70;99.90;;;;;;5047753;28;20302;-67
2023/01/03 09:45:32;;;;;;;;;;;3.70;99.90;;;;;;5042885;28;20099;-65
2023/01/03 09:48:00;;;;;;;;;;;3.70;99.90;;;;;;5049308;28;20350;-65
2023/01/03 09:50:27;;;;;;;;;;;3.60;99.90;;;;;;5054683;28;19928;-67
2023/01/03 10:04:25;;;;;;;;;;;3.10;99.90;;;;;;5041081;28;19931;-65
2023/01/03 10:07:09;;;;;;;;;;;3.10;99.90;;;;;;5060251;28;19924;-67
2023/01/03 10:09:47;;;;;;;;;;;2.90;99.90;;;;;;5051339;28;19928;-67
2023/01/03 10:12:28;;;;;;;;;;;2.90;99.90;;;;;;5054470;28;19960;-66
2023/01/03 10:15:06;;;;;;;;;;;2.70;99.90;;;;;;5053144;28;20255;-66
2023/01/03 10:17:34;;;;;;;;;;;2.70;99.90;;;;;;5046377;28;19925;-68
2023/01/03 10:20:18;;;;;;;;;;;2.70;99.90;;;;;;5052577;28;19935;-67
2023/01/03 10:22:46;;;;;;;;;;;2.70;99.90;;;;;;5047718;28;20274;-67
2023/01/03 10:25:22;;;;;;;;;;;2.70;99.90;;;;;;5049541;28;19925;-67
2023/01/03 10:27:50;;;;;;;;;;;2.60;99.90;;;;;;5052708;28;19932;-67
2023/01/03 10:30:31;;;;;;;;;;;2.70;99.90;;;;;;5086549;28;19920;-66
2023/01/03 10:33:15;;;;;;;;;;;2.70;99.90;;;;;;5052174;28;19928;-67
2023/01/03 10:35:41;;;;;;;;;;;2.70;99.90;;;;;;5048330;28;19925;-66
2023/01/03 10:38:06;;;;;;;;;;;2.70;99.90;;;;;;5038685;28;19932;-67
2023/01/03 10:40:32;;;;;;;;;;;;;;;;;;5040167;28;19960;-66
2023/01/03 10:42:58;;;;;;;;;;;2.80;99.90;;;;;;5044961;28;19928;-67
2023/01/03 10:45:23;;;;;;;;;;;2.80;99.90;;;;;;5053546;28;19925;-66
2023/01/03 10:47:59;;;;;;;;;;;2.80;99.90;;;;;;5044387;28;20399;-67
2023/01/03 10:50:25;;;;;;;;;;;2.80;99.90;;;;;;5048099;28;20034;-67
2023/01/03 10:53:04;;;;;;;;;;;2.80;99.90;;;;;;5041580;28;19920;-67
2023/01/03 10:55:33;;;;;;;;;;;2.90;99.90;;;;;;5040674;28;20362;-67
2023/01/03 10:57:59;;;;;;;;;;;2.90;99.90;;;;;;5045039;28;19921;-66
2023/01/03 11:00:30;;;;;;;;;;;3.00;99.90;;;;;;5047137;28;19932;-70
2023/01/03 11:03:00;;;;;;;;;;;3.00;99.90;;;;;;5052904;28;19921;-66
2023/01/03 11:05:26;;;;;;;;;;;3.00;99.90;;;;;;5052785;28;19921;-70
2023/01/03 11:07:53;;;;;;;;;;;3.00;99.90;;;;;;5053316;28;20370;-67
2023/01/03 11:10:19;;;;;;;;;;;3.10;99.90;;;;;;5053837;28;20034;-67
2023/01/03 11:12:45;;;;;;;;;;;3.20;99.90;;;;;;5051566;28;19935;-67
2023/01/03 11:15:17;;;;;;;;;;;3.30;99.90;;;;;;5052804;28;19925;-66
2023/01/03 11:18:02;;;;;;;;;;;3.40;99.90;;;;;;5052530;28;19924;-67
2023/01/03 11:20:43;;;;;;;;;;;3.50;99.90;;;;;;5041435;28;20392;-70
2023/01/03 11:23:17;;;;;;;;;;;3.50;99.90;;;;;;5050923;28;20011;-66
2023/01/03 11:26:18;;;;;;;;;;;3.70;99.90;;;;;;5049732;28;19928;-66
2023/01/03 11:29:15;;;;;;;;;;;3.80;99.90;;;;;;5022138;28;20020;-66
2023/01/03 11:31:50;;;;;;;;;;;3.80;99.90;;;;;;5026221;28;19960;-67
2023/01/03 11:34:29;;;;;;;;;;;4.00;99.90;;;;;;5051516;28;20500;-65
2023/01/03 11:37:01;;;;;;;;;;;4.10;99.90;;;;;;5051828;28;20007;-65
2023/01/03 11:39:27;;;;;;;;;;;4.20;99.90;;;;;;5052436;28;19931;-66
2023/01/03 11:41:58;;;;;;;;;;;4.30;99.90;;;;;;5057107;28;19920;-65
2023/01/03 11:44:27;;;;;;;;;;;4.30;99.90;;;;;;5083163;28;20243;-65
2023/01/03 11:47:08;;;;;;;;;;;4.40;99.90;;;;;;5072684;28;19925;-65
2023/01/03 11:50:06;;;;;;;;;;;4.50;99.90;;;;;;5047649;28;19939;-66
2023/01/03 11:52:32;;;;;;;;;;;;;;;;;;5023463;28;19921;-71
2023/01/03 11:54:58;;;;;;;;;;;;;;;;;;5049771;28;19995;-65
2023/01/03 11:57:24;;;;;;;;;;;;;;;;;;5048315;28;20386;-66
2023/01/03 11:59:50;;;;;;;;;;;;;;;;;;5049389;28;20266;-65
2023/01/03 12:02:16;;;;;;;;;;;;;;;;;;5050451;28;20376;-67
2023/01/03 12:04:42;;;;;;;;;;;;;;;;;;5049011;28;19920;-67
2023/01/03 12:07:08;;;;;;;;;;;;;;;;;;5049811;28;19927;-67
2023/01/03 12:09:34;;;;;;;;;;;;;;;;;;5050541;28;20004;-69
2023/01/03 12:12:11;;;;;;;;;;;4.50;99.90;;;;;;5050457;28;20106;-66
2023/01/03 12:14:37;;;;;;;;;;;;;;;;;;5046667;28;20251;-66
2023/01/03 12:17:03;;;;;;;;;;;;;;;;;;5044778;28;19927;-67
2023/01/03 12:19:32;;;;;;;;;;;5.10;99.90;;;;;;5037015;28;20359;-67
2023/01/03 12:22:02;;;;;;;;;;;5.10;99.90;;;;;;5038178;28;19921;-67
2023/01/03 12:24:34;;;;;;;;;;;5.10;99.90;;;;;;5044644;28;19929;-67
2023/01/03 12:27:08;;;;;;;;;;;5.20;99.90;;;;;;5048472;28;19964;-67
2023/01/03 12:29:42;;;;;;;;;;;5.20;99.90;;;;;;5038034;28;19921;-67
2023/01/03 12:32:11;;;;;;;;;;;5.20;99.90;;;;;;5038771;28;20020;-67
2023/01/03 12:34:50;;;;;;;;;;;5.20;99.90;;;;;;5044226;28;19964;-66
2023/01/03 12:37:20;;;;;;;;;;;5.30;99.90;;;;;;5047900;28;19925;-66
2023/01/03 12:39:46;;;;;;;;;;;5.30;99.90;;;;;;5036741;28;19998;-67
2023/01/03 12:42:20;;;;;;;;;;;5.40;99.90;;;;;;5037012;28;19925;-67
2023/01/03 12:44:47;;;;;;;;;;;5.30;99.90;;;;;;5043400;28;19928;-69
2023/01/03 12:47:39;;;;;;;;;;;5.30;99.90;;;;;;5042343;28;19932;-67
2023/01/03 12:50:26;;;;;;;;;;;5.40;99.90;;;;;;5042761;28;19925;-68
2023/01/03 12:52:55;;;;;;;;;;;5.50;99.90;;;;;;5022368;28;19929;-66
2023/01/03 12:55:23;;;;;;;;;;;5.50;99.90;;;;;;5074292;28;19920;-67
2023/01/03 12:58:08;;;;;;;;;;;5.50;99.90;;;;;;5049597;28;19921;-66
2023/01/03 13:00:42;;;;;;;;;;;5.50;99.90;;;;;;5042359;28;19921;-67
2023/01/03 13:03:17;;;;;;;;;;;5.60;99.90;;;;;;5046982;28;19963;-67
2023/01/03 13:05:46;;;;;;;;;;;5.60;99.90;;;;;;5051147;28;19955;-75
2023/01/03 13:08:17;;;;;;;;;;;5.60;99.90;;;;;;5049920;28;19979;-66
2023/01/03 13:10:43;;;;;;;;;;;;;;;;;;5050714;28;19920;-74
2023/01/03 13:13:09;;;;;;;;;;;;;;;;;;5051132;28;19974;-67
2023/01/03 13:15:35;;;;;;;;;;;5.60;99.90;;;;;;5051710;28;19920;-66
2023/01/03 13:18:01;;;;;;;;;;;;;;;;;;5048113;28;19925;-65
2023/01/03 13:20:27;;;;;;;;;;;;;;;;;;5044011;28;20032;-66
2023/01/03 13:22:53;;;;;;;;;;;;;;;;;;5038382;28;19931;-66
2023/01/03 13:25:19;;;;;;;;;;;;;;;;;;5048625;28;20041;-66
2023/01/03 13:27:45;;;;;;;;;;;;;;;;;;5046616;28;19960;-72
2023/01/03 13:30:11;;;;;;;;;;;;;;;;;;5048676;28;19967;-67
2023/01/03 13:32:50;;;;;;;;;;;5.80;99.90;;;;;;5048438;28;20358;-67
2023/01/03 13:35:17;;;;;;;;;;;6.00;99.90;;;;;;5051517;28;19956;-67
2023/01/03 13:37:49;;;;;;;;;;;6.00;99.90;;;;;;5051678;28;19925;-66
2023/01/03 13:40:32;;;;;;;;;;;6.10;99.90;;;;;;5053467;28;20378;-68
2023/01/03 13:43:02;;;;;;;;;;;6.10;99.90;;;;;;5031197;28;19956;-65
2023/01/03 13:45:30;;;;;;;;;;;6.10;99.90;;;;;;5053887;28;19920;-71
2023/01/03 13:47:57;;;;;;;;;;;6.20;99.90;;;;;;5038956;28;20268;-69
2023/01/03 13:50:22;;;;;;;;;;;6.20;99.90;;;;;;5036177;28;19931;-66
2023/01/03 13:52:56;;;;;;;;;;;6.20;99.90;;;;;;5036352;28;19925;-70
2023/01/03 13:55:32;;;;;;;;;;;6.20;99.90;;;;;;5064331;28;19924;-66
2023/01/03 13:57:57;;;;;;;;;;;6.20;99.90;;;;;;5086168;28;19928;-66
2023/01/03 14:00:23;;;;;;;;;;;6.20;99.90;;;;;;5040134;28;19921;-66
2023/01/03 14:02:52;;;;;;;;;;;6.30;99.90;;;;;;5052060;28;20077;-65
2023/01/03 14:05:26;;;;;;;;;;;6.30;99.90;;;;;;5054372;28;19924;-66
2023/01/03 14:07:52;;;;;;;;;;;6.20;99.90;;;;;;5054022;28;19928;-73
2023/01/03 14:10:32;;;;;;;;;;;6.30;99.90;;;;;;5052589;28;19927;-67
2023/01/03 14:13:15;;;;;;;;;;;6.30;99.90;;;;;;5053535;28;20337;-66
2023/01/03 14:15:41;;;;;;;;;;;6.30;99.90;;;;;;5053976;28;19920;-66
2023/01/03 14:18:12;;;;;;;;;;;6.40;99.90;;;;;;5060312;28;19936;-67
2023/01/03 14:20:38;;;;;;;;;;;6.30;99.90;;;;;;5056857;28;20441;-67
2023/01/03 14:23:06;;;;;;;;;;;6.30;99.90;;;;;;5051644;28;20066;-66
2023/01/03 14:25:38;;;;;;;;;;;6.40;99.90;;;;;;5086340;28;19928;-66
2023/01/03 14:28:22;;;;;;;;;;;6.30;99.90;;;;;;5053148;28;19925;-66
2023/01/03 14:31:08;;;;;;;;;;;6.40;99.90;;;;;;5054146;28;19974;-66
2023/01/03 14:33:40;;;;;;;;;;;6.30;99.90;;;;;;5053088;28;19969;-66
2023/01/03 14:36:07;;;;;;;;;;;6.40;99.90;;;;;;5061376;28;19931;-69
2023/01/03 14:38:33;;;;;;;;;;;6.40;99.90;;;;;;5053719;28;20318;-66
2023/01/03 14:40:59;;;;;;;;;;;6.40;99.90;;;;;;5053011;28;20262;-67
2023/01/03 14:43:29;;;;;;;;;;;6.40;99.90;;;;;;5054316;28;19920;-67
2023/01/03 14:45:56;;;;;;;;;;;6.50;99.90;;;;;;5084625;28;19933;-66
2023/01/03 14:48:22;;;;;;;;;;;6.50;99.90;;;;;;5063618;28;19924;-67
2023/01/03 14:50:48;;;;;;;;;;;6.50;99.90;;;;;;5053418;28;20331;-67
2023/01/03 14:53:13;;;;;;;;;;;6.50;99.90;;;;;;5051782;28;19990;-67
2023/01/03 14:55:39;;;;;;;;;;;6.50;99.90;;;;;;5058573;28;19920;-67
2023/01/03 14:58:23;;;;;;;;;;;6.50;99.90;;;;;;5061356;28;20007;-67
2023/01/03 15:00:49;;;;;;;;;;;6.60;99.90;;;;;;5052911;28;20437;-64
2023/01/03 15:03:16;;;;;;;;;;;6.60;99.90;;;;;;5052152;28;19929;-67
2023/01/03 15:05:42;;;;;;;;;;;6.60;99.90;;;;;;5051798;28;19974;-65
2023/01/03 15:08:13;;;;;;;;;;;6.60;99.90;;;;;;5060571;28;20032;-65
2023/01/03 15:10:48;;;;;;;;;;;6.50;99.90;;;;;;5056440;28;19966;-65
2023/01/03 15:13:16;;;;;;;;;;;6.60;99.90;;;;;;5052413;28;19928;-66
2023/01/03 15:15:42;;;;;;;;;;;6.60;99.90;;;;;;5051516;28;20039;-65
2023/01/03 15:18:09;;;;;;;;;;;6.70;99.90;;;;;;5080334;28;20277;-65
2023/01/03 15:20:40;;;;;;;;;;;6.70;99.90;;;;;;5047959;28;20000;-65
2023/01/03 15:23:07;;;;;;;;;;;6.60;99.90;;;;;;5052235;28;20317;-66
2023/01/03 15:25:34;;;;;;;;;;;6.60;99.90;;;;;;5052499;28;19996;-66
2023/01/03 15:28:22;;;;;;;;;;;6.60;99.90;;;;;;5052529;28;19925;-66
2023/01/03 15:30:48;;;;;;;;;;;6.60;99.90;;;;;;5046486;28;19927;-67
2023/01/03 15:33:19;;;;;;;;;;;6.70;99.90;;;;;;5049978;28;19921;-66
2023/01/03 15:35:46;;;;;;;;;;;6.70;99.90;;;;;;5048532;28;20336;-68
2023/01/03 15:38:16;;;;;;;;;;;6.80;99.90;;;;;;5039235;28;20007;-66
2023/01/03 15:40:42;;;;;;;;;;;6.80;99.90;;;;;;5038644;28;20078;-68
2023/01/03 15:43:18;;;;;;;;;;;6.80;99.90;;;;;;5041717;28;19928;-68
2023/01/03 15:45:47;;;;;;;;;;;6.90;99.90;;;;;;5047129;28;20302;-66
2023/01/03 15:48:17;;;;;;;;;;;6.80;99.90;;;;;;5039899;28;19921;-69
2023/01/03 15:50:46;;;;;;;;;;;6.80;99.90;;;;;;5049831;28;20006;-68
2023/01/03 15:53:23;;;;;;;;;;;6.90;99.90;;;;;;5041191;28;19932;-67